Aérodrome :
LOGIN :

S'inscrire | Disclaimer

   EN    FR    IT 

 










Légende :    VFR   VFR Marginal   IFR   IFR Intensif   IFR Très Intensif
Visi : 
Plafond : 
>= 8 km
>= 3000ft
5 à 8 km
1000 à 3000 ft
1500m à 5 km
500 à 1000 ft
800 à 1500m
200 à 500 ft
< 800m
< 200 ft
Symboles :   Orages  Brouillard  Fortes neiges  Fortes précipitations  Vent > 20 kt
SIGMETs :   Divers  Orages  Givrage  Turbulence  Onde Orograph.  Cendres Volcan.







- Altitude de l'aérodrome : 204 ft
- Code IATA : AGF
- Voir les cartes d'approche


LFBA - Agen

DERNIER METAR :
  • 212200Z AUTO 12003KT 9999 ///CB 16/14 Q1013

METARs EXPIRÉS :
  • 212130Z AUTO 13004KT 9999 ///CB 16/14 Q1013
  • 212100Z AUTO 30004KT 280V350 9999 FEW040/// SCT068/// BKN094/// ///CB 16/13 Q1012 TEMPO VRB15G25KT 4000 TSRA BECMG NSC
  • 212030Z AUTO 27008KT 9999 RA ///CB 17/12 Q1012 TEMPO VRB15G25KT 4000 TSRA BECMG NSC
  • 212000Z AUTO 34006KT 310V020 9999 ///CB 18/11 Q1011 TEMPO VRB15G25KT 4000 TSRA
  • 211930Z AUTO 03006KT 350V070 9999 ///CB 19/11 Q1011 TEMPO SCT040

TAF AMD TAF LFBA
Valide du 21 à 19h jusqu'au 22 à 00h UTC


211920Z 2119/2124 11003KT CAVOK
TEMPO 2119/2122 VRB15G25KT 4000 TSRA SCT040 SCT060CB
Pas de NOTAMs connus pour ce terrain.
1 SIGMET publié pour la FIR Bordeaux (LFBB) :
 
Orages noyés dans la masse
LFBB SIGMET 8 VALID 212100/220000 LFPW
LFBB BORDEAUX FIR/UIR EMBD TS OBS WI N4545 E00300 - N4415 E00245 - N4315 E00045 - N4445 W00030 - N4545 E00300 TOP FL350 STNR WKN=



MET'MAP, la Météo Aéronautique d'un coup d'oeil ! - Copyright ORBIFLY Décembre 2007 - Disclaimer

ORBIFLY MET'MAP TEAM :

Programmation & Développement : Alexandra Zaïnal
Conception & Développement : Baudouin d'Aumeries
Co-Programmation & Développement : Marc-Olivier Méhu
Soutien technique & logistique : Manuel Goepfert

Contact : metmap@orbifly.com




SOURCES & CREDITS :

   NOAA